MSC Mara — V7NF9 — position and weather

sailwx.info

Track history (hours):
 
Tides and Currents Weather Stations Pressure Air Temp Water Temp Dewpoint Dewpoint Depression Visibility Wind Speed Wind Dir Waves Ship Positions

MSC Mara

Last reported at 2015-Aug-25 09:30 UTC. Time now 2015-Aug-29 09:22 UTC.
Position N 40°26' W 069°07'.

Length 294 m; draft 10.5 m.

Type: Ship (hazmat cat C). MMSI: 538002955.

Date/timePositionNaut miles runAvg speedWind from/ knotsBaromVisibWave heightAir tempDewpointWater temp
2015-Aug-25 09:30N 40°26' W 069°07'1718.0
2015-Aug-25 08:33N 40°26' W 069°30'1817.9
2015-Aug-25 07:33N 40°26' W 069°53'2317.6
2015-Aug-25 06:16N 40°25' W 070°23'1317.8
2015-Aug-25 05:33N 40°25' W 070°39'1818.0
2015-Aug-25 04:34N 40°24' W 071°03'1818.2
2015-Aug-25 03:33N 40°24' W 071°27'1818.1
2015-Aug-25 02:34N 40°24' W 071°51'1818.0
2015-Aug-25 01:34N 40°23' W 072°14'1817.9
2015-Aug-25 00:34N 40°22' W 072°38'1818.4
2015-Aug-24 23:33N 40°22' W 073°02'1818.2
2015-Aug-24 22:34N 40°24' W 073°26'1817.7
2015-Aug-24 21:33N 40°27' W 073°48'1212.2
2015-Aug-24 20:34N 40°34' W 074°02'7 6.8
2015-Aug-24 19:34N 40°39' W 074°08'3 2.4
2015-Aug-24 18:31N 40°41' W 074°09'0 0.0
2015-Aug-24 17:33N 40°41' W 074°09'0 0.0
2015-Aug-24 16:33N 40°41' W 074°09'0 0.0
2015-Aug-24 15:33N 40°41' W 074°09'0 0.0
2015-Aug-24 14:33N 40°41' W 074°09'0 0.0
2015-Aug-24 13:33N 40°41' W 074°09'0 0.0
2015-Aug-24 12:33N 40°41' W 074°09'0 0.0
2015-Aug-24 11:33N 40°41' W 074°09'0 0.0
2015-Aug-24 10:33N 40°41' W 074°09'0 0.0
2015-Aug-24 09:33N 40°41' W 074°09'0 0.0
2015-Aug-24 08:33N 40°41' W 074°09'0 0.0
2015-Aug-24 07:33N 40°41' W 074°09'0 0.0
2015-Aug-24 06:33N 40°41' W 074°09'0 0.0
2015-Aug-24 05:30N 40°41' W 074°09'0 0.0
2015-Aug-24 04:33N 40°41' W 074°09'0 0.0
2015-Aug-24 03:33N 40°41' W 074°09'0 0.0
2015-Aug-24 02:33N 40°41' W 074°09'0 0.0
2015-Aug-24 01:33N 40°41' W 074°09'0 0.0
2015-Aug-24 00:33N 40°41' W 074°09'0 0.0
2015-Aug-23 23:33N 40°41' W 074°09'0 0.0
2015-Aug-23 22:33N 40°41' W 074°09'0 0.0
2015-Aug-23 21:30N 40°41' W 074°09'0 0.0
2015-Aug-23 20:33N 40°41' W 074°09'0 0.0
2015-Aug-23 19:33N 40°41' W 074°09'0 0.4
2015-Aug-23 18:33N 40°41' W 074°09'5 4.6
2015-Aug-23 17:33N 40°39' W 074°03'9 9.4
2015-Aug-23 16:34N 40°30' W 073°57'1010.3
2015-Aug-23 15:33N 40°23' W 073°47'9 8.1
2015-Aug-23 14:31N 40°15' W 073°45'3 2.4
2015-Aug-23 13:27N 40°15' W 073°49'1010.4
2015-Aug-23 12:30N 40°06' W 073°44'1313.4
2015-Aug-23 11:33N 39°53' W 073°42'1818.3
2015-Aug-23 10:34N 39°35' W 073°42'1918.5
2015-Aug-23 09:33N 39°17' W 073°47'1918.6
2015-Aug-23 08:32N 38°58' W 073°52'4018.4
2015-Aug-23 06:22N 38°19' W 074°02'49517.8
2015-Aug-22 02:32N 31°59' W 080°30'1514.9
2015-Aug-22 01:33N 32°00' W 080°48'1111.5
2015-Aug-22 00:34N 32°06' W 080°60'6 6.3
2015-Aug-21 23:34N 32°06' W 081°07'2 2.3
2015-Aug-21 22:33N 32°08' W 081°09'0 0.0
2015-Aug-21 21:33N 32°08' W 081°09'0 0.0
2015-Aug-21 20:33N 32°08' W 081°09'0 0.0
2015-Aug-21 19:33N 32°08' W 081°09'0 0.0
2015-Aug-21 18:33N 32°08' W 081°09'0 0.0
2015-Aug-21 17:33N 32°08' W 081°09'0 0.0
2015-Aug-21 16:33N 32°08' W 081°09'0 0.0
2015-Aug-21 15:32N 32°08' W 081°09'0 0.0
2015-Aug-21 14:32N 32°08' W 081°09'0 0.0
2015-Aug-21 13:20N 32°08' W 081°09'0 0.0
2015-Aug-21 12:32N 32°08' W 081°09'0 0.0
2015-Aug-21 11:32N 32°08' W 081°09'0 0.0
2015-Aug-21 10:32N 32°08' W 081°09'0 0.0
2015-Aug-21 09:32N 32°08' W 081°09'0 0.0
2015-Aug-21 08:32N 32°08' W 081°09'0 0.0
2015-Aug-21 07:32N 32°08' W 081°09'0 0.0
2015-Aug-21 06:33N 32°08' W 081°09'3 2.6
2015-Aug-21 05:33N 32°06' W 081°07'6 6.0
2015-Aug-21 04:33N 32°06' W 080°60'1111.3
2015-Aug-21 03:33N 32°01' W 080°48'9 8.8
2015-Aug-21 02:34N 31°60' W 080°38'0 0.1
2015-Aug-21 01:32N 31°60' W 080°38'0 0.2
2015-Aug-21 00:32N 31°59' W 080°38'0 0.1
2015-Aug-20 23:32N 31°59' W 080°38'0 0.1
2015-Aug-20 22:32N 31°59' W 080°38'0 0.0
2015-Aug-20 21:32N 31°59' W 080°38'0 0.1
2015-Aug-20 20:32N 31°59' W 080°38'0 0.1
2015-Aug-20 19:32N 31°60' W 080°38'0 0.0
2015-Aug-20 18:08N 31°60' W 080°38'0 0.0
2015-Aug-20 17:32N 31°60' W 080°38'0 0.1
2015-Aug-20 16:32N 31°60' W 080°38'0 0.0
2015-Aug-20 15:32N 31°60' W 080°38'0 0.0
2015-Aug-20 14:32N 31°60' W 080°38'1 0.6
2015-Aug-20 13:33N 31°59' W 080°38'1812.9
2015-Aug-20 12:09N 31°57' W 080°17'711.6
2015-Aug-20 11:31N 32°01' W 080°10'1311.5
2015-Aug-20 10:24N 32°08' W 079°57'2511.3
2015-Aug-20 08:13N 32°22' W 079°33'38811.4
2015-Aug-18 22:06N 37°14' W 074°21'1015.2
2015-Aug-18 21:27N 37°23' W 074°19'1415.4
2015-Aug-18 20:33N 37°37' W 074°16'1615.8
2015-Aug-18 19:33N 37°52' W 074°12'1615.7
2015-Aug-18 18:33N 38°08' W 074°09'1615.9
2015-Aug-18 17:33N 38°23' W 074°05'1515.5
2015-Aug-18 16:33N 38°39' W 074°02'1615.7
2015-Aug-18 15:33N 38°54' W 073°58'1615.8
2015-Aug-18 14:33N 39°10' W 073°55'1615.7
2015-Aug-18 13:33N 39°25' W 073°53'1615.5
2015-Aug-18 12:33N 39°41' W 073°52'1615.6
2015-Aug-18 11:33N 39°57' W 073°51'1615.5
2015-Aug-18 10:33N 40°12' W 073°50'1514.0
2015-Aug-18 09:31N 40°27' W 073°50'1414.4
2015-Aug-18 08:34N 40°36' W 074°03'6 5.7
2015-Aug-18 07:33N 40°40' W 074°08'1 1.1
2015-Aug-18 06:31N 40°41' W 074°09'0 0.0
2015-Aug-18 05:31N 40°41' W 074°09'0 0.0
2015-Aug-18 04:31N 40°41' W 074°09'0 0.0
2015-Aug-18 04:10N 40°41' W 074°09'0 0.1
2015-Aug-18 04:07N 40°41' W 074°09'0 0.0
2015-Aug-18 03:31N 40°41' W 074°09'0 0.0
2015-Aug-18 02:31N 40°41' W 074°09'0 0.0
2015-Aug-18 01:31N 40°41' W 074°09'0 0.0
2015-Aug-18 00:31N 40°41' W 074°09'0 0.0
2015-Aug-17 23:25N 40°41' W 074°09'0 0.0
2015-Aug-17 22:31N 40°41' W 074°09'0 0.0
2015-Aug-17 21:31N 40°41' W 074°09'0 0.0
2015-Aug-17 20:31N 40°41' W 074°09'0 0.0
2015-Aug-17 19:31N 40°41' W 074°09'0 0.0
2015-Aug-17 18:31N 40°41' W 074°09'0 0.0
2015-Aug-17 17:31N 40°41' W 074°09'0 0.0
2015-Aug-17 16:31N 40°41' W 074°09'0 0.0
2015-Aug-17 15:31N 40°41' W 074°09'1 1.2
2015-Aug-17 14:34N 40°40' W 074°08'4 3.6
2015-Aug-17 13:33N 40°39' W 074°04'1211.8
2015-Aug-17 12:34N 40°29' W 073°55'9 9.0
2015-Aug-17 11:33N 40°27' W 073°43'10 9.5
2015-Aug-17 10:33N 40°28' W 073°31'1717.5
2015-Aug-17 09:33N 40°29' W 073°08'2020.4
2015-Aug-17 08:33N 40°30' W 072°41'2020.1
2015-Aug-17 07:33N 40°31' W 072°15'2019.7
2015-Aug-17 06:33N 40°31' W 071°49'2019.7
2015-Aug-17 05:34N 40°32' W 071°23'2019.8
2015-Aug-17 04:33N 40°32' W 070°57'2019.9
2015-Aug-17 03:33N 40°32' W 070°31'2020.1
2015-Aug-17 02:33N 40°33' W 070°04'2121.3
2015-Aug-17 01:33N 40°34' W 069°36'2121.5
2015-Aug-17 00:33N 40°33' W 069°08'2221.9
2015-Aug-16 23:33N 40°29' W 068°40'2117.5
2015-Aug-16 22:23N 40°24' W 068°13'6121.5
2015-Aug-16 19:33N 40°14' W 066°55'  
Track history (hours):
 
Tides and Currents Weather Stations Pressure Air Temp Water Temp Dewpoint Dewpoint Depression Visibility Wind Speed Wind Dir Waves Ship Positions

MSC Mara

Last reported at 2015-Aug-25 09:30 UTC. Time now 2015-Aug-29 09:22 UTC.
Position N 40°26' W 069°07'.

Length 294 m; draft 10.5 m.

Type: Ship (hazmat cat C). MMSI: 538002955.

Date/timePositionNaut miles runAvg speedWind from/ knotsBaromVisibWave heightAir tempDewpointWater temp
2015-Aug-25 09:30N 40°26' W 069°07'1718.0
2015-Aug-25 08:33N 40°26' W 069°30'1817.9
2015-Aug-25 07:33N 40°26' W 069°53'2317.6
2015-Aug-25 06:16N 40°25' W 070°23'1317.8
2015-Aug-25 05:33N 40°25' W 070°39'1818.0
2015-Aug-25 04:34N 40°24' W 071°03'1818.2
2015-Aug-25 03:33N 40°24' W 071°27'1818.1
2015-Aug-25 02:34N 40°24' W 071°51'1818.0
2015-Aug-25 01:34N 40°23' W 072°14'1817.9
2015-Aug-25 00:34N 40°22' W 072°38'1818.4
2015-Aug-24 23:33N 40°22' W 073°02'1818.2
2015-Aug-24 22:34N 40°24' W 073°26'1817.7
2015-Aug-24 21:33N 40°27' W 073°48'1212.2
2015-Aug-24 20:34N 40°34' W 074°02'7 6.8
2015-Aug-24 19:34N 40°39' W 074°08'3 2.4
2015-Aug-24 18:31N 40°41' W 074°09'0 0.0
2015-Aug-24 17:33N 40°41' W 074°09'0 0.0
2015-Aug-24 16:33N 40°41' W 074°09'0 0.0
2015-Aug-24 15:33N 40°41' W 074°09'0 0.0
2015-Aug-24 14:33N 40°41' W 074°09'0 0.0
2015-Aug-24 13:33N 40°41' W 074°09'0 0.0
2015-Aug-24 12:33N 40°41' W 074°09'0 0.0
2015-Aug-24 11:33N 40°41' W 074°09'0 0.0
2015-Aug-24 10:33N 40°41' W 074°09'0 0.0
2015-Aug-24 09:33N 40°41' W 074°09'0 0.0
2015-Aug-24 08:33N 40°41' W 074°09'0 0.0
2015-Aug-24 07:33N 40°41' W 074°09'0 0.0
2015-Aug-24 06:33N 40°41' W 074°09'0 0.0
2015-Aug-24 05:30N 40°41' W 074°09'0 0.0
2015-Aug-24 04:33N 40°41' W 074°09'0 0.0
2015-Aug-24 03:33N 40°41' W 074°09'0 0.0
2015-Aug-24 02:33N 40°41' W 074°09'0 0.0
2015-Aug-24 01:33N 40°41' W 074°09'0 0.0
2015-Aug-24 00:33N 40°41' W 074°09'0 0.0
2015-Aug-23 23:33N 40°41' W 074°09'0 0.0
2015-Aug-23 22:33N 40°41' W 074°09'0 0.0
2015-Aug-23 21:30N 40°41' W 074°09'0 0.0
2015-Aug-23 20:33N 40°41' W 074°09'0 0.0
2015-Aug-23 19:33N 40°41' W 074°09'0 0.4
2015-Aug-23 18:33N 40°41' W 074°09'5 4.6
2015-Aug-23 17:33N 40°39' W 074°03'9 9.4
2015-Aug-23 16:34N 40°30' W 073°57'1010.3
2015-Aug-23 15:33N 40°23' W 073°47'9 8.1
2015-Aug-23 14:31N 40°15' W 073°45'3 2.4
2015-Aug-23 13:27N 40°15' W 073°49'1010.4
2015-Aug-23 12:30N 40°06' W 073°44'1313.4
2015-Aug-23 11:33N 39°53' W 073°42'1818.3
2015-Aug-23 10:34N 39°35' W 073°42'1918.5
2015-Aug-23 09:33N 39°17' W 073°47'1918.6
2015-Aug-23 08:32N 38°58' W 073°52'4018.4
2015-Aug-23 06:22N 38°19' W 074°02'49517.8
2015-Aug-22 02:32N 31°59' W 080°30'1514.9
2015-Aug-22 01:33N 32°00' W 080°48'1111.5
2015-Aug-22 00:34N 32°06' W 080°60'6 6.3
2015-Aug-21 23:34N 32°06' W 081°07'2 2.3
2015-Aug-21 22:33N 32°08' W 081°09'0 0.0
2015-Aug-21 21:33N 32°08' W 081°09'0 0.0
2015-Aug-21 20:33N 32°08' W 081°09'0 0.0
2015-Aug-21 19:33N 32°08' W 081°09'0 0.0
2015-Aug-21 18:33N 32°08' W 081°09'0 0.0
2015-Aug-21 17:33N 32°08' W 081°09'0 0.0
2015-Aug-21 16:33N 32°08' W 081°09'0 0.0
2015-Aug-21 15:32N 32°08' W 081°09'0 0.0
2015-Aug-21 14:32N 32°08' W 081°09'0 0.0
2015-Aug-21 13:20N 32°08' W 081°09'0 0.0
2015-Aug-21 12:32N 32°08' W 081°09'0 0.0
2015-Aug-21 11:32N 32°08' W 081°09'0 0.0
2015-Aug-21 10:32N 32°08' W 081°09'0 0.0
2015-Aug-21 09:32N 32°08' W 081°09'0 0.0
2015-Aug-21 08:32N 32°08' W 081°09'0 0.0
2015-Aug-21 07:32N 32°08' W 081°09'0 0.0
2015-Aug-21 06:33N 32°08' W 081°09'3 2.6
2015-Aug-21 05:33N 32°06' W 081°07'6 6.0
2015-Aug-21 04:33N 32°06' W 080°60'1111.3
2015-Aug-21 03:33N 32°01' W 080°48'9 8.8
2015-Aug-21 02:34N 31°60' W 080°38'0 0.1
2015-Aug-21 01:32N 31°60' W 080°38'0 0.2
2015-Aug-21 00:32N 31°59' W 080°38'0 0.1
2015-Aug-20 23:32N 31°59' W 080°38'0 0.1
2015-Aug-20 22:32N 31°59' W 080°38'0 0.0
2015-Aug-20 21:32N 31°59' W 080°38'0 0.1
2015-Aug-20 20:32N 31°59' W 080°38'0 0.1
2015-Aug-20 19:32N 31°60' W 080°38'0 0.0
2015-Aug-20 18:08N 31°60' W 080°38'0 0.0
2015-Aug-20 17:32N 31°60' W 080°38'0 0.1
2015-Aug-20 16:32N 31°60' W 080°38'0 0.0
2015-Aug-20 15:32N 31°60' W 080°38'0 0.0
2015-Aug-20 14:32N 31°60' W 080°38'1 0.6
2015-Aug-20 13:33N 31°59' W 080°38'1812.9
2015-Aug-20 12:09N 31°57' W 080°17'711.6
2015-Aug-20 11:31N 32°01' W 080°10'1311.5
2015-Aug-20 10:24N 32°08' W 079°57'2511.3
2015-Aug-20 08:13N 32°22' W 079°33'38811.4
2015-Aug-18 22:06N 37°14' W 074°21'1015.2
2015-Aug-18 21:27N 37°23' W 074°19'1415.4
2015-Aug-18 20:33N 37°37' W 074°16'1615.8
2015-Aug-18 19:33N 37°52' W 074°12'1615.7
2015-Aug-18 18:33N 38°08' W 074°09'1615.9
2015-Aug-18 17:33N 38°23' W 074°05'1515.5
2015-Aug-18 16:33N 38°39' W 074°02'1615.7
2015-Aug-18 15:33N 38°54' W 073°58'1615.8
2015-Aug-18 14:33N 39°10' W 073°55'1615.7
2015-Aug-18 13:33N 39°25' W 073°53'1615.5
2015-Aug-18 12:33N 39°41' W 073°52'1615.6
2015-Aug-18 11:33N 39°57' W 073°51'1615.5
2015-Aug-18 10:33N 40°12' W 073°50'1514.0
2015-Aug-18 09:31N 40°27' W 073°50'1414.4
2015-Aug-18 08:34N 40°36' W 074°03'6 5.7
2015-Aug-18 07:33N 40°40' W 074°08'1 1.1
2015-Aug-18 06:31N 40°41' W 074°09'0 0.0
2015-Aug-18 05:31N 40°41' W 074°09'0 0.0
2015-Aug-18 04:31N 40°41' W 074°09'0 0.0
2015-Aug-18 04:10N 40°41' W 074°09'0 0.1
2015-Aug-18 04:07N 40°41' W 074°09'0 0.0
2015-Aug-18 03:31N 40°41' W 074°09'0 0.0
2015-Aug-18 02:31N 40°41' W 074°09'0 0.0
2015-Aug-18 01:31N 40°41' W 074°09'0 0.0
2015-Aug-18 00:31N 40°41' W 074°09'0 0.0
2015-Aug-17 23:25N 40°41' W 074°09'0 0.0
2015-Aug-17 22:31N 40°41' W 074°09'0 0.0
2015-Aug-17 21:31N 40°41' W 074°09'0 0.0
2015-Aug-17 20:31N 40°41' W 074°09'0 0.0
2015-Aug-17 19:31N 40°41' W 074°09'0 0.0
2015-Aug-17 18:31N 40°41' W 074°09'0 0.0
2015-Aug-17 17:31N 40°41' W 074°09'0 0.0
2015-Aug-17 16:31N 40°41' W 074°09'0 0.0
2015-Aug-17 15:31N 40°41' W 074°09'1 1.2
2015-Aug-17 14:34N 40°40' W 074°08'4 3.6
2015-Aug-17 13:33N 40°39' W 074°04'1211.8
2015-Aug-17 12:34N 40°29' W 073°55'9 9.0
2015-Aug-17 11:33N 40°27' W 073°43'10 9.5
2015-Aug-17 10:33N 40°28' W 073°31'1717.5
2015-Aug-17 09:33N 40°29' W 073°08'2020.4
2015-Aug-17 08:33N 40°30' W 072°41'2020.1
2015-Aug-17 07:33N 40°31' W 072°15'2019.7
2015-Aug-17 06:33N 40°31' W 071°49'2019.7
2015-Aug-17 05:34N 40°32' W 071°23'2019.8
2015-Aug-17 04:33N 40°32' W 070°57'2019.9
2015-Aug-17 03:33N 40°32' W 070°31'2020.1
2015-Aug-17 02:33N 40°33' W 070°04'2121.3
2015-Aug-17 01:33N 40°34' W 069°36'2121.5
2015-Aug-17 00:33N 40°33' W 069°08'2221.9
2015-Aug-16 23:33N 40°29' W 068°40'2117.5
2015-Aug-16 22:23N 40°24' W 068°13'6121.5
2015-Aug-16 19:33N 40°14' W 066°55'  

Dump ship's entire track history